sensor_id;sensor_type;location;lat;lon;timestamp;pressure;altitude;pressure_sealevel;temperature;humidity
30618;BME280;17384;51.214;9.202;2022-12-29T00:02:02;97721.63;;;7.76;76.98
30618;BME280;17384;51.214;9.202;2022-12-29T00:04:27;97715.53;;;7.80;77.09
30618;BME280;17384;51.214;9.202;2022-12-29T00:06:53;97713.50;;;7.76;77.40
30618;BME280;17384;51.214;9.202;2022-12-29T00:09:19;97711.63;;;7.76;77.14
30618;BME280;17384;51.214;9.202;2022-12-29T00:11:44;97721.56;;;7.82;76.98
30618;BME280;17384;51.214;9.202;2022-12-29T00:14:10;97723.72;;;7.74;77.28
30618;BME280;17384;51.214;9.202;2022-12-29T00:16:56;97699.72;;;7.84;76.97
30618;BME280;17384;51.214;9.202;2022-12-29T00:19:22;97722.59;;;7.81;77.25
30618;BME280;17384;51.214;9.202;2022-12-29T00:22:09;97716.97;;;7.83;77.20
30618;BME280;17384;51.214;9.202;2022-12-29T00:24:53;97713.75;;;7.74;77.37
30618;BME280;17384;51.214;9.202;2022-12-29T00:27:19;97724.75;;;7.73;77.41
30618;BME280;17384;51.214;9.202;2022-12-29T00:30:08;97724.91;;;7.78;77.32
30618;BME280;17384;51.214;9.202;2022-12-29T00:32:52;97721.09;;;7.86;77.33
30618;BME280;17384;51.214;9.202;2022-12-29T00:35:39;97725.34;;;7.75;77.57
30618;BME280;17384;51.214;9.202;2022-12-29T00:38:07;97712.91;;;7.74;78.12
30618;BME280;17384;51.214;9.202;2022-12-29T00:40:52;97719.56;;;7.71;78.14
30618;BME280;17384;51.214;9.202;2022-12-29T00:43:36;97722.50;;;7.70;77.88
30618;BME280;17384;51.214;9.202;2022-12-29T00:46:20;97710.81;;;7.58;78.62
30618;BME280;17384;51.214;9.202;2022-12-29T00:48:46;97696.34;;;7.70;78.87
30618;BME280;17384;51.214;9.202;2022-12-29T00:51:30;97706.25;;;7.58;79.29
30618;BME280;17384;51.214;9.202;2022-12-29T00:53:55;97689.22;;;7.58;79.63
30618;BME280;17384;51.214;9.202;2022-12-29T00:56:21;97698.88;;;7.47;80.11
30618;BME280;17384;51.214;9.202;2022-12-29T00:58:46;97695.13;;;7.48;80.44
30618;BME280;17384;51.214;9.202;2022-12-29T01:01:12;97701.88;;;7.57;80.11
30618;BME280;17384;51.214;9.202;2022-12-29T01:03:37;97700.78;;;7.40;80.47
30618;BME280;17384;51.214;9.202;2022-12-29T01:06:08;97695.72;;;7.50;80.28
30618;BME280;17384;51.214;9.202;2022-12-29T01:08:34;97704.44;;;7.52;80.13
30618;BME280;17384;51.214;9.202;2022-12-29T01:11:08;97689.59;;;7.61;79.74
30618;BME280;17384;51.214;9.202;2022-12-29T01:13:34;97678.03;;;7.54;80.06
30618;BME280;17384;51.214;9.202;2022-12-29T01:16:00;97684.31;;;7.66;79.54
30618;BME280;17384;51.214;9.202;2022-12-29T01:18:26;97675.78;;;7.51;80.12
30618;BME280;17384;51.214;9.202;2022-12-29T01:21:01;97662.13;;;7.46;80.41
30618;BME280;17384;51.214;9.202;2022-12-29T01:23:28;97664.44;;;7.42;80.61
30618;BME280;17384;51.214;9.202;2022-12-29T01:25:53;97657.19;;;7.43;80.50
30618;BME280;17384;51.214;9.202;2022-12-29T01:28:19;97644.00;;;7.53;80.26
30618;BME280;17384;51.214;9.202;2022-12-29T01:30:45;97644.16;;;7.58;79.96
30618;BME280;17384;51.214;9.202;2022-12-29T01:33:10;97641.47;;;7.58;79.93
30618;BME280;17384;51.214;9.202;2022-12-29T01:35:35;97649.41;;;7.53;80.02
30618;BME280;17384;51.214;9.202;2022-12-29T01:38:01;97644.84;;;7.54;80.02
30618;BME280;17384;51.214;9.202;2022-12-29T01:40:26;97647.53;;;7.54;80.06
30618;BME280;17384;51.214;9.202;2022-12-29T01:42:53;97660.34;;;7.58;80.01
30618;BME280;17384;51.214;9.202;2022-12-29T01:45:18;97653.91;;;7.59;80.03
30618;BME280;17384;51.214;9.202;2022-12-29T01:47:47;97650.16;;;7.60;80.20
30618;BME280;17384;51.214;9.202;2022-12-29T01:50:52;97641.25;;;7.60;80.18
30618;BME280;17384;51.214;9.202;2022-12-29T01:53:24;97650.16;;;7.60;80.24
30618;BME280;17384;51.214;9.202;2022-12-29T01:55:58;97645.16;;;7.64;80.08
30618;BME280;17384;51.214;9.202;2022-12-29T01:58:29;97656.06;;;7.69;79.93
30618;BME280;17384;51.214;9.202;2022-12-29T02:00:55;97650.31;;;7.65;79.82
30618;BME280;17384;51.214;9.202;2022-12-29T02:03:23;97645.97;;;7.64;80.03
30618;BME280;17384;51.214;9.202;2022-12-29T02:06:11;97646.53;;;7.66;79.81
30618;BME280;17384;51.214;9.202;2022-12-29T02:08:39;97641.53;;;7.70;79.97
30618;BME280;17384;51.214;9.202;2022-12-29T02:11:07;97650.00;;;7.73;79.88
30618;BME280;17384;51.214;9.202;2022-12-29T02:13:33;97632.38;;;7.71;80.29
30618;BME280;17384;51.214;9.202;2022-12-29T02:32:49;97633.97;;;7.60;82.07
30618;BME280;17384;51.214;9.202;2022-12-29T02:38:14;97631.09;;;7.73;81.85
30618;BME280;17384;51.214;9.202;2022-12-29T02:40:58;97622.03;;;7.68;82.07
30618;BME280;17384;51.214;9.202;2022-12-29T02:46:21;97630.72;;;7.70;81.87
30618;BME280;17384;51.214;9.202;2022-12-29T02:51:58;97638.00;;;7.88;81.75
30618;BME280;17384;51.214;9.202;2022-12-29T02:54:25;97617.50;;;7.98;81.09
30618;BME280;17384;51.214;9.202;2022-12-29T02:57:15;97617.09;;;8.13;80.76
30618;BME280;17384;51.214;9.202;2022-12-29T02:59:42;97599.78;;;8.02;80.83
30618;BME280;17384;51.214;9.202;2022-12-29T03:11:12;97613.81;;;8.53;79.78
30618;BME280;17384;51.214;9.202;2022-12-29T03:14:08;97599.53;;;8.64;78.95
30618;BME280;17384;51.214;9.202;2022-12-29T03:17:00;97597.41;;;8.66;78.82
30618;BME280;17384;51.214;9.202;2022-12-29T03:19:30;97592.84;;;8.66;78.65
30618;BME280;17384;51.214;9.202;2022-12-29T03:22:01;97591.31;;;8.82;78.27
30618;BME280;17384;51.214;9.202;2022-12-29T03:24:53;97591.41;;;8.75;78.24
30618;BME280;17384;51.214;9.202;2022-12-29T03:27:31;97597.06;;;8.86;77.93
30618;BME280;17384;51.214;9.202;2022-12-29T03:30:01;97590.72;;;8.68;78.68
30618;BME280;17384;51.214;9.202;2022-12-29T03:32:49;97597.19;;;8.79;78.47
30618;BME280;17384;51.214;9.202;2022-12-29T03:35:18;97593.56;;;8.73;78.51
30618;BME280;17384;51.214;9.202;2022-12-29T03:38:14;97578.72;;;8.88;77.90
30618;BME280;17384;51.214;9.202;2022-12-29T03:40:43;97582.75;;;8.97;77.56
30618;BME280;17384;51.214;9.202;2022-12-29T03:43:09;97575.56;;;9.02;77.44
30618;BME280;17384;51.214;9.202;2022-12-29T03:45:35;97586.63;;;9.12;77.32
30618;BME280;17384;51.214;9.202;2022-12-29T03:48:01;97568.16;;;9.21;77.16
30618;BME280;17384;51.214;9.202;2022-12-29T03:50:26;97579.91;;;9.15;77.65
30618;BME280;17384;51.214;9.202;2022-12-29T03:52:52;97568.97;;;9.22;77.24
30618;BME280;17384;51.214;9.202;2022-12-29T03:55:17;97576.03;;;9.23;77.80
30618;BME280;17384;51.214;9.202;2022-12-29T03:57:42;97583.78;;;9.19;78.21
30618;BME280;17384;51.214;9.202;2022-12-29T04:00:09;97564.03;;;9.19;78.34
30618;BME280;17384;51.214;9.202;2022-12-29T04:02:34;97588.84;;;9.27;78.12
30618;BME280;17384;51.214;9.202;2022-12-29T04:05:00;97584.50;;;9.14;78.73
30618;BME280;17384;51.214;9.202;2022-12-29T04:07:25;97580.97;;;9.14;79.01
30618;BME280;17384;51.214;9.202;2022-12-29T04:09:51;97566.72;;;9.19;79.12
30618;BME280;17384;51.214;9.202;2022-12-29T04:12:16;97570.16;;;9.14;79.74
30618;BME280;17384;51.214;9.202;2022-12-29T04:14:41;97571.78;;;9.03;80.04
30618;BME280;17384;51.214;9.202;2022-12-29T04:17:07;97562.53;;;8.99;80.60
30618;BME280;17384;51.214;9.202;2022-12-29T04:19:32;97557.00;;;8.94;81.00
30618;BME280;17384;51.214;9.202;2022-12-29T04:21:58;97561.00;;;8.92;81.34
30618;BME280;17384;51.214;9.202;2022-12-29T04:24:23;97564.63;;;8.86;81.82
30618;BME280;17384;51.214;9.202;2022-12-29T04:26:49;97565.69;;;8.73;82.50
30618;BME280;17384;51.214;9.202;2022-12-29T04:29:14;97552.97;;;8.85;82.22
30618;BME280;17384;51.214;9.202;2022-12-29T04:31:40;97567.69;;;8.89;82.13
30618;BME280;17384;51.214;9.202;2022-12-29T04:34:05;97550.50;;;8.83;82.36
30618;BME280;17384;51.214;9.202;2022-12-29T04:36:31;97555.81;;;8.90;82.23
30618;BME280;17384;51.214;9.202;2022-12-29T04:38:56;97565.44;;;8.86;82.34
30618;BME280;17384;51.214;9.202;2022-12-29T04:41:21;97561.91;;;8.86;82.64
30618;BME280;17384;51.214;9.202;2022-12-29T04:43:47;97574.97;;;8.77;83.17
30618;BME280;17384;51.214;9.202;2022-12-29T04:46:12;97557.44;;;8.68;83.74
30618;BME280;17384;51.214;9.202;2022-12-29T04:48:38;97566.84;;;8.77;83.61
30618;BME280;17384;51.214;9.202;2022-12-29T04:51:03;97556.16;;;8.70;83.65
30618;BME280;17384;51.214;9.202;2022-12-29T04:53:29;97548.41;;;8.74;83.72
30618;BME280;17384;51.214;9.202;2022-12-29T04:55:54;97556.53;;;8.74;83.67
30618;BME280;17384;51.214;9.202;2022-12-29T04:58:20;97513.25;;;8.74;83.60
30618;BME280;17384;51.214;9.202;2022-12-29T05:00:46;97526.44;;;8.70;83.94
30618;BME280;17384;51.214;9.202;2022-12-29T05:03:11;97539.91;;;8.59;84.43
30618;BME280;17384;51.214;9.202;2022-12-29T05:05:36;97532.28;;;8.67;84.10
30618;BME280;17384;51.214;9.202;2022-12-29T05:08:02;97534.88;;;8.62;84.26
30618;BME280;17384;51.214;9.202;2022-12-29T05:10:27;97536.06;;;8.66;84.12
30618;BME280;17384;51.214;9.202;2022-12-29T05:12:53;97526.31;;;8.65;84.07
30618;BME280;17384;51.214;9.202;2022-12-29T05:15:19;97540.03;;;8.64;84.00
30618;BME280;17384;51.214;9.202;2022-12-29T05:17:44;97530.41;;;8.68;83.83
30618;BME280;17384;51.214;9.202;2022-12-29T05:20:10;97531.13;;;8.75;83.83
30618;BME280;17384;51.214;9.202;2022-12-29T05:22:35;97545.22;;;8.77;83.54
30618;BME280;17384;51.214;9.202;2022-12-29T05:25:01;97538.88;;;8.71;83.98
30618;BME280;17384;51.214;9.202;2022-12-29T05:27:26;97543.09;;;8.67;84.15
30618;BME280;17384;51.214;9.202;2022-12-29T05:29:52;97538.16;;;8.64;84.48
30618;BME280;17384;51.214;9.202;2022-12-29T05:32:17;97546.50;;;8.63;84.81
30618;BME280;17384;51.214;9.202;2022-12-29T05:34:43;97563.53;;;8.52;85.08
30618;BME280;17384;51.214;9.202;2022-12-29T05:37:08;97539.91;;;8.59;85.00
30618;BME280;17384;51.214;9.202;2022-12-29T05:39:33;97548.72;;;8.54;85.41
30618;BME280;17384;51.214;9.202;2022-12-29T05:41:59;97545.19;;;8.54;85.67
30618;BME280;17384;51.214;9.202;2022-12-29T05:44:25;97529.94;;;8.47;85.82
30618;BME280;17384;51.214;9.202;2022-12-29T05:46:50;97518.53;;;8.45;85.72
30618;BME280;17384;51.214;9.202;2022-12-29T05:49:16;97514.28;;;8.49;85.43
30618;BME280;17384;51.214;9.202;2022-12-29T05:51:42;97510.78;;;8.61;84.76
30618;BME280;17384;51.214;9.202;2022-12-29T05:54:07;97518.66;;;8.62;84.86
30618;BME280;17384;51.214;9.202;2022-12-29T05:56:33;97507.72;;;8.45;85.68
30618;BME280;17384;51.214;9.202;2022-12-29T05:58:58;97515.00;;;8.45;85.67
30618;BME280;17384;51.214;9.202;2022-12-29T06:01:24;97521.94;;;8.53;84.87
30618;BME280;17384;51.214;9.202;2022-12-29T06:03:49;97522.06;;;8.46;85.20
30618;BME280;17384;51.214;9.202;2022-12-29T06:06:14;97519.34;;;8.58;84.32
30618;BME280;17384;51.214;9.202;2022-12-29T06:08:41;97533.25;;;8.73;83.33
30618;BME280;17384;51.214;9.202;2022-12-29T06:11:06;97539.47;;;8.73;83.53
30618;BME280;17384;51.214;9.202;2022-12-29T06:13:31;97543.34;;;8.66;83.41
30618;BME280;17384;51.214;9.202;2022-12-29T06:15:57;97556.53;;;8.74;83.32
30618;BME280;17384;51.214;9.202;2022-12-29T06:18:22;97550.75;;;8.70;83.27
30618;BME280;17384;51.214;9.202;2022-12-29T06:20:48;97553.09;;;8.78;82.95
30618;BME280;17384;51.214;9.202;2022-12-29T06:23:13;97546.84;;;8.78;82.85
30618;BME280;17384;51.214;9.202;2022-12-29T06:25:39;97536.03;;;8.78;83.35
30618;BME280;17384;51.214;9.202;2022-12-29T06:28:04;97563.09;;;8.78;83.36
30618;BME280;17384;51.214;9.202;2022-12-29T06:30:31;97555.81;;;8.67;83.90
30618;BME280;17384;51.214;9.202;2022-12-29T06:32:57;97538.66;;;8.73;84.39
30618;BME280;17384;51.214;9.202;2022-12-29T06:35:23;97548.63;;;8.61;85.37
30618;BME280;17384;51.214;9.202;2022-12-29T06:37:48;97557.44;;;8.56;85.33
30618;BME280;17384;51.214;9.202;2022-12-29T06:40:14;97542.38;;;8.48;85.70
30618;BME280;17384;51.214;9.202;2022-12-29T06:42:39;97534.38;;;8.54;85.16
30618;BME280;17384;51.214;9.202;2022-12-29T06:45:05;97542.97;;;8.51;85.53
30618;BME280;17384;51.214;9.202;2022-12-29T06:47:33;97534.03;;;8.50;85.79
30618;BME280;17384;51.214;9.202;2022-12-29T06:49:58;97534.75;;;8.45;86.04
30618;BME280;17384;51.214;9.202;2022-12-29T06:52:24;97533.19;;;8.49;85.97
30618;BME280;17384;51.214;9.202;2022-12-29T06:54:49;97540.75;;;8.47;86.07
30618;BME280;17384;51.214;9.202;2022-12-29T06:57:15;97539.66;;;8.48;85.82
30618;BME280;17384;51.214;9.202;2022-12-29T06:59:40;97550.84;;;8.40;86.38
30618;BME280;17384;51.214;9.202;2022-12-29T07:02:06;97540.03;;;8.40;86.32
30618;BME280;17384;51.214;9.202;2022-12-29T07:04:32;97531.22;;;8.45;85.92
30618;BME280;17384;51.214;9.202;2022-12-29T07:06:57;97552.84;;;8.45;85.84
30618;BME280;17384;51.214;9.202;2022-12-29T07:09:22;97532.03;;;8.45;85.85
30618;BME280;17384;51.214;9.202;2022-12-29T07:11:48;97540.38;;;8.44;86.01
30618;BME280;17384;51.214;9.202;2022-12-29T07:14:13;97545.44;;;8.40;86.07
30618;BME280;17384;51.214;9.202;2022-12-29T07:16:39;97531.78;;;8.35;86.05
30618;BME280;17384;51.214;9.202;2022-12-29T07:19:04;97539.56;;;8.43;85.93
30618;BME280;17384;51.214;9.202;2022-12-29T07:21:30;97537.31;;;8.40;85.76
30618;BME280;17384;51.214;9.202;2022-12-29T07:23:56;97534.63;;;8.40;86.17
30618;BME280;17384;51.214;9.202;2022-12-29T07:26:21;97534.16;;;8.43;85.82
30618;BME280;17384;51.214;9.202;2022-12-29T07:28:47;97542.50;;;8.54;85.32
30618;BME280;17384;51.214;9.202;2022-12-29T07:31:18;97532.38;;;8.49;85.41
30618;BME280;17384;51.214;9.202;2022-12-29T07:33:44;97544.50;;;8.46;85.66
30618;BME280;17384;51.214;9.202;2022-12-29T07:36:11;97547.31;;;8.52;85.28
30618;BME280;17384;51.214;9.202;2022-12-29T07:38:37;97548.97;;;8.53;85.04
30618;BME280;17384;51.214;9.202;2022-12-29T07:41:02;97559.53;;;8.42;85.92
30618;BME280;17384;51.214;9.202;2022-12-29T07:43:28;97547.78;;;8.48;85.82
30618;BME280;17384;51.214;9.202;2022-12-29T07:45:53;97547.44;;;8.45;86.04
30618;BME280;17384;51.214;9.202;2022-12-29T07:48:19;97541.31;;;8.49;85.67
30618;BME280;17384;51.214;9.202;2022-12-29T07:50:44;97540.38;;;8.44;85.73
30618;BME280;17384;51.214;9.202;2022-12-29T07:53:10;97534.38;;;8.54;85.18
30618;BME280;17384;51.214;9.202;2022-12-29T07:55:35;97540.25;;;8.51;85.41
30618;BME280;17384;51.214;9.202;2022-12-29T07:58:01;97540.47;;;8.49;85.29
30618;BME280;17384;51.214;9.202;2022-12-29T08:00:26;97548.03;;;8.59;84.83
30618;BME280;17384;51.214;9.202;2022-12-29T08:02:52;97548.03;;;8.59;85.07
30618;BME280;17384;51.214;9.202;2022-12-29T08:05:17;97546.63;;;8.56;85.18
30618;BME280;17384;51.214;9.202;2022-12-29T08:07:43;97552.03;;;8.56;85.29
30618;BME280;17384;51.214;9.202;2022-12-29T08:10:10;97564.59;;;8.51;85.39
30618;BME280;17384;51.214;9.202;2022-12-29T08:12:37;97553.91;;;8.56;85.17
30618;BME280;17384;51.214;9.202;2022-12-29T08:15:04;97555.69;;;8.62;84.87
30618;BME280;17384;51.214;9.202;2022-12-29T08:17:30;97565.91;;;8.60;85.26
30618;BME280;17384;51.214;9.202;2022-12-29T08:19:55;97570.72;;;8.58;85.41
30618;BME280;17384;51.214;9.202;2022-12-29T08:22:21;97564.72;;;8.56;85.54
30618;BME280;17384;51.214;9.202;2022-12-29T08:24:46;97571.19;;;8.55;85.72
30618;BME280;17384;51.214;9.202;2022-12-29T08:27:12;97577.19;;;8.57;85.82
30618;BME280;17384;51.214;9.202;2022-12-29T08:29:37;97574.47;;;8.57;85.82
30618;BME280;17384;51.214;9.202;2022-12-29T08:32:03;97570.72;;;8.58;85.86
30618;BME280;17384;51.214;9.202;2022-12-29T08:34:30;97580.09;;;8.55;85.59
30618;BME280;17384;51.214;9.202;2022-12-29T08:36:56;97586.69;;;8.59;85.54
30618;BME280;17384;51.214;9.202;2022-12-29T08:39:22;97611.84;;;8.60;85.52
30618;BME280;17384;51.214;9.202;2022-12-29T08:41:47;97613.13;;;8.57;85.72
30618;BME280;17384;51.214;9.202;2022-12-29T08:44:13;97603.59;;;8.55;86.21
30618;BME280;17384;51.214;9.202;2022-12-29T08:46:38;97611.63;;;8.61;85.78
30618;BME280;17384;51.214;9.202;2022-12-29T08:49:04;97616.44;;;8.59;86.02
30618;BME280;17384;51.214;9.202;2022-12-29T08:51:29;97609.00;;;8.55;86.00
30618;BME280;17384;51.214;9.202;2022-12-29T08:53:55;97616.66;;;8.58;86.17
30618;BME280;17384;51.214;9.202;2022-12-29T08:56:20;97615.94;;;8.51;86.52
30618;BME280;17384;51.214;9.202;2022-12-29T08:58:46;97627.25;;;8.47;86.89
30618;BME280;17384;51.214;9.202;2022-12-29T09:01:11;97575.63;;;8.37;86.67
30618;BME280;17384;51.214;9.202;2022-12-29T09:03:37;97610.44;;;8.57;85.10
30618;BME280;17384;51.214;9.202;2022-12-29T09:06:03;97618.22;;;8.65;84.92
30618;BME280;17384;51.214;9.202;2022-12-29T09:08:28;97613.50;;;8.61;84.66
30618;BME280;17384;51.214;9.202;2022-12-29T09:10:54;97618.31;;;8.59;84.70
30618;BME280;17384;51.214;9.202;2022-12-29T09:13:19;97618.44;;;8.75;83.55
30618;BME280;17384;51.214;9.202;2022-12-29T09:15:45;97612.94;;;8.82;83.60
30618;BME280;17384;51.214;9.202;2022-12-29T09:18:12;97609.53;;;8.87;83.71
30618;BME280;17384;51.214;9.202;2022-12-29T09:20:38;97616.69;;;8.81;83.70
30618;BME280;17384;51.214;9.202;2022-12-29T09:23:04;97631.06;;;8.93;82.32
30618;BME280;17384;51.214;9.202;2022-12-29T09:25:31;97626.72;;;8.92;82.14
30618;BME280;17384;51.214;9.202;2022-12-29T09:27:56;97618.38;;;9.05;80.74
30618;BME280;17384;51.214;9.202;2022-12-29T09:30:23;97637.06;;;9.07;80.64
30618;BME280;17384;51.214;9.202;2022-12-29T09:32:49;97631.19;;;8.98;81.14
30618;BME280;17384;51.214;9.202;2022-12-29T09:35:15;97641.56;;;9.25;80.11
30618;BME280;17384;51.214;9.202;2022-12-29T09:37:42;97634.84;;;9.15;79.85
30618;BME280;17384;51.214;9.202;2022-12-29T09:40:30;97646.34;;;9.69;78.16
30618;BME280;17384;51.214;9.202;2022-12-29T09:45:44;97656.47;;;9.74;77.08
30618;BME280;17384;51.214;9.202;2022-12-29T09:48:21;97635.13;;;10.29;73.88
30618;BME280;17384;51.214;9.202;2022-12-29T09:50:53;97638.22;;;10.49;73.17
30618;BME280;17384;51.214;9.202;2022-12-29T09:56:16;97669.41;;;10.97;71.28
30618;BME280;17384;51.214;9.202;2022-12-29T09:59:04;97670.53;;;10.68;71.69
30618;BME280;17384;51.214;9.202;2022-12-29T10:01:51;97663.88;;;10.59;73.49
30618;BME280;17384;51.214;9.202;2022-12-29T10:04:18;97657.81;;;10.40;71.77
30618;BME280;17384;51.214;9.202;2022-12-29T10:07:04;97662.34;;;10.79;71.94
30618;BME280;17384;51.214;9.202;2022-12-29T10:24:18;97648.78;;;10.34;71.64
30618;BME280;17384;51.214;9.202;2022-12-29T10:26:48;97655.56;;;10.08;73.17
30618;BME280;17384;51.214;9.202;2022-12-29T10:29:22;97667.59;;;9.89;73.97
30618;BME280;17384;51.214;9.202;2022-12-29T10:31:56;97674.31;;;9.87;74.36
30618;BME280;17384;51.214;9.202;2022-12-29T10:34:31;97668.19;;;9.91;73.37
30618;BME280;17384;51.214;9.202;2022-12-29T10:37:09;97670.78;;;9.86;74.01
30618;BME280;17384;51.214;9.202;2022-12-29T10:39:43;97671.13;;;9.90;74.00
30618;BME280;17384;51.214;9.202;2022-12-29T10:44:48;97662.13;;;9.72;74.14
30618;BME280;17384;51.214;9.202;2022-12-29T10:47:18;97683.31;;;9.75;73.87
30618;BME280;17384;51.214;9.202;2022-12-29T10:49:47;97677.31;;;9.73;74.00
30618;BME280;17384;51.214;9.202;2022-12-29T10:52:14;97674.00;;;9.71;74.40
30618;BME280;17384;51.214;9.202;2022-12-29T10:54:58;97674.25;;;9.58;74.69
30618;BME280;17384;51.214;9.202;2022-12-29T10:57:39;97680.03;;;9.50;74.92
30618;BME280;17384;51.214;9.202;2022-12-29T11:00:13;97675.44;;;9.50;73.99
30618;BME280;17384;51.214;9.202;2022-12-29T11:03:03;97681.44;;;9.53;75.09
30618;BME280;17384;51.214;9.202;2022-12-29T11:05:50;97681.56;;;9.46;74.74
30618;BME280;17384;51.214;9.202;2022-12-29T11:08:21;97683.81;;;9.49;74.72
30618;BME280;17384;51.214;9.202;2022-12-29T11:10:59;97667.44;;;9.44;74.89
30618;BME280;17384;51.214;9.202;2022-12-29T11:13:30;97659.09;;;9.45;73.17
30618;BME280;17384;51.214;9.202;2022-12-29T11:15:56;97676.28;;;9.51;73.84
30618;BME280;17384;51.214;9.202;2022-12-29T11:18:32;97664.75;;;9.56;72.83
30618;BME280;17384;51.214;9.202;2022-12-29T11:21:00;97667.09;;;9.52;72.43
30618;BME280;17384;51.214;9.202;2022-12-29T11:28:41;97676.38;;;9.44;71.74
30618;BME280;17384;51.214;9.202;2022-12-29T11:31:08;97674.97;;;9.42;71.75
30618;BME280;17384;51.214;9.202;2022-12-29T11:33:35;97666.50;;;9.38;71.22
30618;BME280;17384;51.214;9.202;2022-12-29T11:36:07;97667.56;;;9.37;71.32
30618;BME280;17384;51.214;9.202;2022-12-29T11:38:36;97684.38;;;9.39;71.50
30618;BME280;17384;51.214;9.202;2022-12-29T11:41:03;97665.19;;;9.41;72.16
30618;BME280;17384;51.214;9.202;2022-12-29T11:43:34;97682.25;;;9.41;70.37
30618;BME280;17384;51.214;9.202;2022-12-29T11:46:02;97674.97;;;9.42;70.78
30618;BME280;17384;51.214;9.202;2022-12-29T11:48:38;97666.84;;;9.42;70.58
30618;BME280;17384;51.214;9.202;2022-12-29T11:51:05;97677.22;;;9.45;69.61
30618;BME280;17384;51.214;9.202;2022-12-29T11:56:06;97674.97;;;9.42;68.77
30618;BME280;17384;51.214;9.202;2022-12-29T11:58:35;97679.09;;;9.44;68.46
30618;BME280;17384;51.214;9.202;2022-12-29T12:01:16;97673.09;;;9.42;67.48
30618;BME280;17384;51.214;9.202;2022-12-29T12:03:56;97678.28;;;9.44;66.95
30618;BME280;17384;51.214;9.202;2022-12-29T12:06:26;97682.03;;;9.43;66.96
30618;BME280;17384;51.214;9.202;2022-12-29T12:08:59;97667.44;;;9.44;67.01
30618;BME280;17384;51.214;9.202;2022-12-29T12:11:34;97669.09;;;9.45;68.12
30618;BME280;17384;51.214;9.202;2022-12-29T12:14:15;97673.69;;;9.44;67.58
30618;BME280;17384;51.214;9.202;2022-12-29T12:16:47;97678.50;;;9.42;69.18
30618;BME280;17384;51.214;9.202;2022-12-29T12:20:16;97685.22;;;9.40;68.00
30618;BME280;17384;51.214;9.202;2022-12-29T12:22:38;97679.78;;;9.40;68.25
30618;BME280;17384;51.214;9.202;2022-12-29T12:25:10;97677.56;;;9.37;69.57
30618;BME280;17384;51.214;9.202;2022-12-29T12:30:14;97672.59;;;9.34;67.68
30618;BME280;17384;51.214;9.202;2022-12-29T12:33:00;97693.19;;;9.35;69.46
30618;BME280;17384;51.214;9.202;2022-12-29T12:36:04;97672.84;;;9.32;69.70
30618;BME280;17384;51.214;9.202;2022-12-29T12:38:37;97681.56;;;9.34;69.66
30618;BME280;17384;51.214;9.202;2022-12-29T12:43:50;97673.66;;;9.33;69.33
30618;BME280;17384;51.214;9.202;2022-12-29T12:51:47;97686.50;;;9.37;69.35
30618;BME280;17384;51.214;9.202;2022-12-29T12:57:23;97678.97;;;9.39;69.33
30618;BME280;17384;51.214;9.202;2022-12-29T13:00:08;97693.78;;;9.37;69.69
30618;BME280;17384;51.214;9.202;2022-12-29T13:08:32;97687.44;;;9.43;69.47
30618;BME280;17384;51.214;9.202;2022-12-29T13:14:09;97676.03;;;9.41;69.97
30618;BME280;17384;51.214;9.202;2022-12-29T13:17:03;97689.09;;;9.44;70.18
30618;BME280;17384;51.214;9.202;2022-12-29T13:28:20;97702.63;;;9.44;70.95
30618;BME280;17384;51.214;9.202;2022-12-29T13:30:57;97700.97;;;9.43;70.48
30618;BME280;17384;51.214;9.202;2022-12-29T13:33:44;97717.22;;;9.43;70.76
30618;BME280;17384;51.214;9.202;2022-12-29T13:36:46;97720.06;;;9.48;70.98
30618;BME280;17384;51.214;9.202;2022-12-29T13:41:57;97719.94;;;9.43;71.04
30618;BME280;17384;51.214;9.202;2022-12-29T13:44:29;97717.22;;;9.43;71.89
30618;BME280;17384;51.214;9.202;2022-12-29T13:47:00;97721.81;;;9.42;71.09
30618;BME280;17384;51.214;9.202;2022-12-29T13:49:27;97719.34;;;9.41;71.41
30618;BME280;17384;51.214;9.202;2022-12-29T14:00:23;97744.53;;;9.30;71.72
30618;BME280;17384;51.214;9.202;2022-12-29T14:03:19;97747.81;;;9.32;72.13
30618;BME280;17384;51.214;9.202;2022-12-29T14:06:29;97752.41;;;9.43;71.79
30618;BME280;17384;51.214;9.202;2022-12-29T14:08:58;97755.38;;;9.53;71.30
30618;BME280;17384;51.214;9.202;2022-12-29T14:11:38;97776.56;;;9.56;71.63
30618;BME280;17384;51.214;9.202;2022-12-29T14:14:18;97764.19;;;9.60;70.51
30618;BME280;17384;51.214;9.202;2022-12-29T14:16:44;97763.50;;;9.65;70.47
30618;BME280;17384;51.214;9.202;2022-12-29T14:19:15;97768.53;;;9.61;70.26
30618;BME280;17384;51.214;9.202;2022-12-29T14:21:51;97775.41;;;9.75;70.82
30618;BME280;17384;51.214;9.202;2022-12-29T14:26:53;97768.88;;;10.35;64.38
30618;BME280;17384;51.214;9.202;2022-12-29T14:31:52;97771.72;;;10.28;65.04
30618;BME280;17384;51.214;9.202;2022-12-29T14:39:38;97808.38;;;9.72;64.92
30618;BME280;17384;51.214;9.202;2022-12-29T14:42:20;97806.81;;;9.65;65.47
30618;BME280;17384;51.214;9.202;2022-12-29T14:45:06;97802.78;;;9.44;65.47
30618;BME280;17384;51.214;9.202;2022-12-29T14:47:39;97804.31;;;9.40;66.20
30618;BME280;17384;51.214;9.202;2022-12-29T14:50:33;97808.41;;;9.31;65.62
30618;BME280;17384;51.214;9.202;2022-12-29T14:56:28;97813.66;;;9.14;65.83
30618;BME280;17384;51.214;9.202;2022-12-29T14:59:02;97816.59;;;9.12;65.88
30618;BME280;17384;51.214;9.202;2022-12-29T15:01:39;97815.25;;;9.03;66.22
30618;BME280;17384;51.214;9.202;2022-12-29T15:04:15;97817.75;;;9.05;66.32
30618;BME280;17384;51.214;9.202;2022-12-29T15:06:42;97813.50;;;8.97;66.35
30618;BME280;17384;51.214;9.202;2022-12-29T15:09:24;97818.63;;;8.87;66.41
30618;BME280;17384;51.214;9.202;2022-12-29T15:11:53;97824.84;;;8.88;66.41
30618;BME280;17384;51.214;9.202;2022-12-29T15:16:54;97827.63;;;8.81;65.54
30618;BME280;17384;51.214;9.202;2022-12-29T15:19:24;97828.09;;;8.78;66.33
30618;BME280;17384;51.214;9.202;2022-12-29T15:21:52;97824.44;;;8.72;66.97
30618;BME280;17384;51.214;9.202;2022-12-29T15:24:18;97843.59;;;8.71;66.31
30618;BME280;17384;51.214;9.202;2022-12-29T15:26:49;97838.19;;;8.71;66.81
30618;BME280;17384;51.214;9.202;2022-12-29T15:31:55;97852.53;;;8.71;66.56
30618;BME280;17384;51.214;9.202;2022-12-29T15:34:21;97862.53;;;8.71;66.35